createdAt,value
2023-04-10T00:00:13.340Z,64.15
2023-04-10T00:01:14.856Z,64.06
2023-04-10T00:02:16.411Z,64.42
2023-04-10T00:03:18.346Z,65.51
2023-04-10T00:04:20.066Z,65.19
2023-04-10T00:05:21.577Z,65.21
2023-04-10T00:06:23.044Z,65.20
2023-04-10T00:07:24.527Z,65.53
2023-04-10T00:08:26.292Z,65.12
2023-04-10T00:09:29.020Z,64.61
2023-04-10T00:10:31.757Z,65.34
2023-04-10T00:11:33.253Z,65.17
2023-04-10T00:12:36.946Z,65.27
2023-04-10T00:13:38.419Z,65.45
2023-04-10T00:14:39.930Z,65.61
2023-04-10T00:15:41.637Z,65.00
2023-04-10T00:16:43.069Z,65.86
2023-04-10T00:17:44.619Z,66.23
2023-04-10T00:18:47.179Z,66.26
2023-04-10T00:19:48.598Z,65.94
2023-04-10T00:20:50.210Z,66.17
2023-04-10T00:21:51.715Z,66.43
2023-04-10T00:22:55.563Z,66.24
2023-04-10T00:23:56.988Z,66.45
2023-04-10T00:24:58.403Z,66.57
2023-04-10T00:26:00.148Z,66.51
2023-04-10T00:27:01.699Z,66.61
2023-04-10T00:28:06.210Z,66.54
2023-04-10T00:29:08.286Z,66.17
2023-04-10T00:30:09.967Z,65.99
2023-04-10T00:31:11.597Z,66.55
2023-04-10T00:32:13.268Z,66.62
2023-04-10T00:33:14.880Z,66.16
2023-04-10T00:34:16.661Z,66.77
2023-04-10T00:35:20.896Z,66.45
2023-04-10T00:36:22.853Z,66.54
2023-04-10T00:37:24.828Z,66.25
2023-04-10T00:38:26.388Z,66.61
2023-04-10T00:39:27.811Z,66.41
2023-04-10T00:40:30.438Z,66.98
2023-04-10T00:41:31.856Z,66.56
2023-04-10T00:42:33.383Z,67.06
2023-04-10T00:43:34.850Z,67.09
2023-04-10T00:44:37.744Z,66.58
2023-04-10T00:45:39.701Z,67.17
2023-04-10T00:46:41.545Z,66.49
2023-04-10T00:47:43.222Z,66.66
2023-04-10T00:48:44.830Z,66.65
2023-04-10T00:49:46.567Z,66.68
2023-04-10T00:50:48.120Z,66.70
2023-04-10T00:51:49.728Z,66.76
2023-04-10T00:52:51.627Z,66.60
2023-04-10T00:53:55.145Z,66.59
2023-04-10T00:54:57.115Z,66.65
2023-04-10T00:56:00.324Z,66.79
2023-04-10T00:57:03.213Z,66.35
2023-04-10T00:58:04.711Z,65.94
2023-04-10T00:59:07.301Z,66.19
2023-04-10T01:00:09.946Z,65.86
2023-04-10T01:01:11.514Z,66.14
2023-04-10T01:02:13.393Z,66.26
2023-04-10T01:03:17.999Z,65.93
2023-04-10T01:04:19.872Z,66.34
2023-04-10T01:05:22.282Z,66.55
2023-04-10T01:06:38.824Z,66.90
2023-04-10T01:08:18.556Z,66.68
2023-04-10T01:09:39.671Z,66.63
2023-04-10T01:10:51.868Z,66.81
2023-04-10T01:12:09.078Z,67.40
2023-04-10T01:13:24.420Z,67.67
2023-04-10T01:14:42.788Z,67.33
2023-04-10T01:15:53.186Z,67.04
2023-04-10T01:17:04.402Z,66.53
2023-04-10T01:18:31.687Z,66.19
2023-04-10T01:19:47.368Z,66.75
2023-04-10T01:20:48.917Z,67.03
2023-04-10T01:21:53.538Z,66.94
2023-04-10T01:23:42.625Z,67.30
2023-04-10T01:25:15.060Z,67.07
2023-04-10T01:26:19.740Z,66.91
2023-04-10T01:27:40.202Z,67.88
2023-04-10T01:29:00.529Z,67.90
2023-04-10T01:30:04.311Z,67.90
2023-04-10T01:31:08.616Z,67.93
2023-04-10T01:32:23.111Z,67.55
2023-04-10T01:33:33.738Z,67.62
2023-04-10T01:34:47.794Z,67.99
2023-04-10T01:35:52.475Z,67.91
2023-04-10T01:36:58.556Z,67.70
2023-04-10T01:38:02.246Z,67.28
2023-04-10T01:39:05.584Z,67.28
2023-04-10T01:40:10.452Z,67.63
2023-04-10T01:41:13.653Z,67.32
2023-04-10T01:42:17.834Z,67.41
2023-04-10T01:43:21.901Z,67.70
2023-04-10T01:44:31.494Z,67.64
2023-04-10T01:45:33.708Z,67.64
2023-04-10T01:46:37.991Z,67.93
2023-04-10T01:47:39.909Z,68.10
2023-04-10T01:48:41.919Z,67.86
2023-04-10T01:49:47.100Z,67.85
2023-04-10T01:50:50.343Z,67.66
2023-04-10T01:51:54.257Z,68.03
2023-04-10T01:52:57.386Z,67.51
2023-04-10T01:54:01.214Z,67.68
2023-04-10T01:55:04.510Z,67.74
2023-04-10T01:56:08.343Z,67.80
2023-04-10T01:57:12.625Z,67.47
2023-04-10T01:58:14.248Z,67.82
2023-04-10T01:59:16.204Z,68.20
2023-04-10T02:00:17.874Z,68.95
2023-04-10T02:01:29.005Z,69.19
2023-04-10T02:02:32.913Z,68.97
2023-04-10T02:03:34.544Z,68.54
2023-04-10T02:04:36.228Z,68.41
2023-04-10T02:05:54.933Z,68.44
2023-04-10T02:07:09.330Z,68.32
2023-04-10T02:08:28.725Z,67.97
2023-04-10T02:10:02.185Z,67.50
2023-04-10T02:11:17.854Z,68.35
2023-04-10T02:12:26.703Z,68.57
2023-04-10T02:13:29.891Z,68.50
2023-04-10T02:14:34.016Z,68.86
2023-04-10T02:15:37.425Z,68.64
2023-04-10T02:16:39.408Z,68.55
2023-04-10T02:17:41.936Z,68.77
2023-04-10T02:18:43.749Z,68.41
2023-04-10T02:19:48.670Z,69.07
2023-04-10T02:20:51.081Z,68.90
2023-04-10T02:21:54.103Z,68.56
2023-04-10T02:22:55.810Z,68.07
2023-04-10T02:23:58.873Z,68.80
2023-04-10T02:25:00.644Z,67.81
2023-04-10T02:26:11.130Z,68.11
2023-04-10T02:27:12.636Z,68.01
2023-04-10T02:28:14.084Z,68.25
2023-04-10T02:29:15.837Z,68.16
2023-04-10T02:30:17.406Z,68.59
2023-04-10T02:31:19.096Z,68.59
2023-04-10T02:32:20.761Z,68.84
2023-04-10T02:33:22.204Z,68.43
2023-04-10T02:34:23.743Z,68.39
2023-04-10T02:35:26.375Z,68.08
2023-04-10T02:36:28.914Z,68.63
2023-04-10T02:37:31.375Z,69.12
2023-04-10T02:38:32.825Z,67.99
2023-04-10T02:39:35.034Z,68.41
2023-04-10T02:40:37.243Z,68.35
2023-04-10T02:41:38.717Z,68.71
2023-04-10T02:42:40.483Z,67.83
2023-04-10T02:43:42.387Z,67.94
2023-04-10T02:44:44.853Z,68.55
2023-04-10T02:45:46.555Z,68.08
2023-04-10T02:46:48.183Z,68.58
2023-04-10T02:47:49.704Z,67.87
2023-04-10T02:48:52.788Z,68.40
2023-04-10T02:49:54.258Z,68.20
2023-04-10T02:50:56.396Z,69.33
2023-04-10T02:51:57.815Z,68.59
2023-04-10T02:52:59.277Z,68.99
2023-04-10T02:54:00.827Z,68.33
2023-04-10T02:55:02.264Z,68.53
2023-04-10T02:56:06.548Z,68.41
2023-04-10T02:57:07.988Z,68.21
2023-04-10T02:58:10.179Z,68.86
2023-04-10T02:59:13.322Z,67.74
2023-04-10T03:00:15.683Z,68.93
2023-04-10T03:01:17.260Z,68.46
2023-04-10T03:02:18.888Z,68.31
2023-04-10T03:03:20.983Z,68.33
2023-04-10T03:04:23.377Z,67.88
2023-04-10T03:05:24.861Z,68.45
2023-04-10T03:06:27.356Z,68.58
2023-04-10T03:07:28.790Z,68.54
2023-04-10T03:08:30.706Z,68.37
2023-04-10T03:09:32.156Z,67.87
2023-04-10T03:10:33.712Z,68.69
2023-04-10T03:11:35.788Z,68.37
2023-04-10T03:12:37.578Z,68.71
2023-04-10T03:13:39.486Z,68.87
2023-04-10T03:14:41.474Z,69.05
2023-04-10T03:15:43.589Z,69.16
2023-04-10T03:16:45.366Z,69.06
2023-04-10T03:17:47.429Z,69.13
2023-04-10T03:18:49.485Z,69.39
2023-04-10T03:19:50.982Z,68.71
2023-04-10T03:20:52.510Z,68.90
2023-04-10T03:21:54.429Z,68.87
2023-04-10T03:22:55.996Z,68.05
2023-04-10T03:23:57.592Z,68.27
2023-04-10T03:24:59.157Z,68.28
2023-04-10T03:26:00.736Z,68.07
2023-04-10T03:27:02.328Z,68.41
2023-04-10T03:28:03.930Z,68.48
2023-04-10T03:29:05.416Z,68.63
2023-04-10T03:30:07.822Z,68.04
2023-04-10T03:31:10.522Z,68.47
2023-04-10T03:32:11.949Z,67.76
2023-04-10T03:33:13.877Z,67.42
2023-04-10T03:34:15.348Z,67.75
2023-04-10T03:35:16.830Z,67.79
2023-04-10T03:36:18.672Z,67.71
2023-04-10T03:37:20.297Z,67.74
2023-04-10T03:38:22.216Z,67.50
2023-04-10T03:39:24.675Z,68.20
2023-04-10T03:40:26.407Z,68.20
2023-04-10T03:41:27.894Z,68.54
2023-04-10T03:42:29.489Z,68.01
2023-04-10T03:43:31.822Z,68.37
2023-04-10T03:44:34.255Z,68.47
2023-04-10T03:45:35.690Z,67.63
2023-04-10T03:46:37.152Z,67.94
2023-04-10T03:47:39.132Z,67.79
2023-04-10T03:48:41.345Z,67.85
2023-04-10T03:49:42.783Z,67.16
2023-04-10T03:50:44.991Z,67.97
2023-04-10T03:51:46.463Z,67.66
2023-04-10T03:52:49.817Z,68.24
2023-04-10T03:53:51.685Z,67.74
2023-04-10T03:54:56.345Z,67.38
2023-04-10T03:55:57.765Z,67.48
2023-04-10T03:56:59.193Z,67.60
2023-04-10T03:58:00.764Z,67.74
2023-04-10T03:59:02.270Z,67.83
2023-04-10T04:00:05.720Z,67.78
2023-04-10T04:01:07.732Z,68.16
2023-04-10T04:02:09.306Z,68.01
2023-04-10T04:03:10.973Z,67.75
2023-04-10T04:04:12.670Z,68.27
2023-04-10T04:05:14.216Z,68.04
2023-04-10T04:06:16.213Z,68.43
2023-04-10T04:07:17.718Z,68.39
2023-04-10T04:08:19.294Z,67.94
2023-04-10T04:09:20.775Z,68.59
2023-04-10T04:10:22.289Z,68.63
2023-04-10T04:11:23.746Z,68.22
2023-04-10T04:12:25.254Z,68.43
2023-04-10T04:13:27.254Z,68.80
2023-04-10T04:14:28.698Z,68.72
2023-04-10T04:15:30.356Z,68.10
2023-04-10T04:16:32.321Z,68.54
2023-04-10T04:17:34.366Z,69.47
2023-04-10T04:18:36.573Z,69.40
2023-04-10T04:19:38.497Z,69.17
2023-04-10T04:20:39.965Z,68.54
2023-04-10T04:21:41.432Z,68.19
2023-04-10T04:22:42.922Z,69.13
2023-04-10T04:23:44.388Z,68.35
2023-04-10T04:24:45.823Z,68.67
2023-04-10T04:25:47.266Z,68.70
2023-04-10T04:26:48.803Z,68.98
2023-04-10T04:27:50.786Z,68.43
2023-04-10T04:28:52.916Z,68.74
2023-04-10T04:29:54.365Z,68.84
2023-04-10T04:30:55.904Z,68.71
2023-04-10T04:31:57.446Z,68.26
2023-04-10T04:32:59.489Z,68.34
2023-04-10T04:34:01.406Z,68.46
2023-04-10T04:35:03.203Z,68.84
2023-04-10T04:36:05.466Z,69.24
2023-04-10T04:37:06.918Z,68.93
2023-04-10T04:38:08.388Z,68.93
2023-04-10T04:39:09.827Z,69.04
2023-04-10T04:40:11.637Z,69.28
2023-04-10T04:41:13.069Z,69.28
2023-04-10T04:42:14.553Z,69.81
2023-04-10T04:43:16.115Z,69.62
2023-04-10T04:44:20.167Z,69.58
2023-04-10T04:45:21.926Z,69.73
2023-04-10T04:46:23.526Z,69.56
2023-04-10T04:47:25.701Z,69.97
2023-04-10T04:48:27.617Z,69.84
2023-04-10T04:49:29.594Z,69.48
2023-04-10T04:50:31.159Z,69.68
2023-04-10T04:51:32.611Z,70.53
2023-04-10T04:52:35.827Z,70.18
2023-04-10T04:53:37.316Z,69.63
2023-04-10T04:54:38.779Z,69.82
2023-04-10T04:55:40.931Z,69.52
2023-04-10T04:56:42.494Z,70.01
2023-04-10T04:57:44.418Z,70.01
2023-04-10T04:58:45.852Z,70.28
2023-04-10T04:59:47.262Z,69.00
2023-04-10T05:00:48.737Z,69.69
2023-04-10T05:01:50.461Z,69.87
2023-04-10T05:02:52.568Z,69.44
2023-04-10T05:03:54.350Z,69.40
2023-04-10T05:04:56.033Z,69.26
2023-04-10T05:05:58.212Z,69.19
2023-04-10T05:06:59.692Z,69.43
2023-04-10T05:08:01.181Z,69.31
2023-04-10T05:09:03.229Z,69.65
2023-04-10T05:10:05.232Z,69.78
2023-04-10T05:11:06.970Z,69.50
2023-04-10T05:12:08.410Z,68.96
2023-04-10T05:13:09.842Z,69.35
2023-04-10T05:14:11.264Z,69.30
2023-04-10T05:15:12.704Z,68.69
2023-04-10T05:16:14.252Z,68.64
2023-04-10T05:17:16.882Z,68.56
2023-04-10T05:18:21.815Z,68.41
2023-04-10T05:19:23.284Z,69.28
2023-04-10T05:20:24.806Z,69.02
2023-04-10T05:21:27.431Z,68.92
2023-04-10T05:22:28.979Z,68.91
2023-04-10T05:23:30.466Z,69.13
2023-04-10T05:24:31.991Z,68.80
2023-04-10T05:25:33.441Z,68.61
2023-04-10T05:26:35.434Z,69.09
2023-04-10T05:27:37.450Z,68.55
2023-04-10T05:28:38.824Z,68.88
2023-04-10T05:29:40.275Z,68.49
2023-04-10T05:30:42.192Z,69.65
2023-04-10T05:31:43.638Z,69.63
2023-04-10T05:32:46.204Z,70.08
2023-04-10T05:33:47.679Z,69.85
2023-04-10T05:34:49.127Z,69.49
2023-04-10T05:35:50.738Z,69.83
2023-04-10T05:36:52.143Z,70.33
2023-04-10T05:37:53.609Z,70.08
2023-04-10T05:38:55.167Z,69.66
2023-04-10T05:39:56.649Z,69.98
2023-04-10T05:40:58.053Z,69.82
2023-04-10T05:41:59.478Z,70.40
2023-04-10T05:43:00.939Z,69.72
2023-04-10T05:44:02.377Z,70.10
2023-04-10T05:45:04.089Z,69.97
2023-04-10T05:46:05.980Z,70.10
2023-04-10T05:47:07.408Z,70.08
2023-04-10T05:48:08.822Z,69.47
2023-04-10T05:49:10.217Z,69.85
2023-04-10T05:50:11.728Z,69.62
2023-04-10T05:51:13.146Z,69.22
2023-04-10T05:52:14.649Z,69.47
2023-04-10T05:53:18.957Z,69.51
2023-04-10T05:54:20.812Z,69.06
2023-04-10T05:55:22.222Z,69.32
2023-04-10T05:56:23.672Z,69.38
2023-04-10T05:57:25.536Z,68.62
2023-04-10T05:58:27.184Z,68.44
2023-04-10T05:59:29.112Z,68.84
2023-04-10T06:00:30.740Z,68.84
2023-04-10T06:01:32.148Z,68.46
2023-04-10T06:02:33.793Z,68.77
2023-04-10T06:03:36.131Z,68.15
2023-04-10T06:04:37.906Z,67.98
2023-04-10T06:05:41.324Z,68.15
2023-04-10T06:06:42.914Z,68.56
2023-04-10T06:07:44.390Z,68.11
2023-04-10T06:08:45.860Z,67.34
2023-04-10T06:09:47.272Z,67.54
2023-04-10T06:10:48.947Z,67.30
2023-04-10T06:11:50.520Z,67.56
2023-04-10T06:12:52.009Z,67.31
2023-04-10T06:13:53.433Z,67.39
2023-04-10T06:14:54.882Z,67.20
2023-04-10T06:15:56.427Z,67.00
2023-04-10T06:16:57.938Z,66.79
2023-04-10T06:17:59.406Z,66.62
2023-04-10T06:19:01.022Z,66.66
2023-04-10T06:20:06.165Z,66.47
2023-04-10T06:21:08.211Z,65.81
2023-04-10T06:22:09.635Z,65.57
2023-04-10T06:23:12.381Z,65.84
2023-04-10T06:24:14.336Z,65.24
2023-04-10T06:25:16.130Z,65.25
2023-04-10T06:26:18.222Z,64.73
2023-04-10T06:27:20.196Z,64.62
2023-04-10T06:28:21.669Z,64.49
2023-04-10T06:29:26.018Z,64.50
2023-04-10T06:30:31.151Z,64.52
2023-04-10T06:31:34.757Z,63.83
2023-04-10T06:32:36.257Z,64.24
2023-04-10T06:33:37.766Z,63.85
2023-04-10T06:34:39.574Z,63.24
2023-04-10T06:35:41.605Z,62.77
2023-04-10T06:36:43.691Z,62.65
2023-04-10T06:37:47.392Z,62.75
2023-04-10T06:38:55.058Z,62.40
2023-04-10T06:41:31.556Z,61.10
2023-04-10T06:42:33.523Z,60.28
2023-04-10T06:43:38.964Z,59.65
2023-04-10T06:44:44.235Z,59.46
2023-04-10T06:45:46.047Z,59.31
2023-04-10T06:46:47.530Z,59.64
2023-04-10T06:47:49.134Z,58.59
2023-04-10T06:48:50.762Z,58.64
2023-04-10T06:49:52.490Z,58.60
2023-04-10T06:50:54.204Z,58.37
2023-04-10T06:51:55.908Z,58.04
2023-04-10T06:52:59.994Z,57.23
2023-04-10T06:54:01.649Z,57.38
2023-04-10T06:55:03.184Z,56.58
2023-04-10T06:56:05.370Z,56.70
2023-04-10T06:57:07.097Z,56.67
2023-04-10T06:58:13.669Z,56.21
2023-04-10T06:59:17.413Z,56.15
2023-04-10T07:00:19.394Z,56.06
2023-04-10T07:01:20.956Z,55.40
2023-04-10T07:02:23.023Z,55.10
2023-04-10T07:03:25.092Z,54.98
2023-04-10T07:04:26.621Z,55.11
2023-04-10T07:05:29.279Z,54.65
2023-04-10T07:06:31.423Z,54.65
2023-04-10T07:07:33.884Z,54.36
2023-04-10T07:08:35.612Z,54.02
2023-04-10T07:09:37.068Z,53.53
2023-04-10T07:10:38.506Z,53.05
2023-04-10T07:11:40.005Z,53.27
2023-04-10T07:12:41.660Z,52.47
2023-04-10T07:13:43.092Z,52.48
2023-04-10T07:14:44.584Z,52.39
2023-04-10T07:15:46.077Z,51.94
2023-04-10T07:16:51.884Z,52.09
2023-04-10T07:17:54.975Z,51.29
2023-04-10T07:18:56.989Z,51.73
2023-04-10T07:19:59.385Z,51.75
2023-04-10T07:21:01.124Z,52.63
2023-04-10T07:22:02.578Z,52.73
2023-04-10T07:23:07.351Z,52.40
2023-04-10T07:24:08.928Z,51.88
2023-04-10T07:25:10.674Z,51.27
2023-04-10T07:26:12.505Z,50.49
2023-04-10T07:27:13.935Z,49.78
2023-04-10T07:28:15.373Z,49.66
2023-04-10T07:29:16.868Z,49.58
2023-04-10T07:30:18.963Z,49.62
2023-04-10T07:31:20.559Z,48.87
2023-04-10T07:32:22.725Z,48.96
2023-04-10T07:33:24.418Z,48.89
2023-04-10T07:34:26.266Z,48.97
2023-04-10T07:35:27.725Z,48.40
2023-04-10T07:36:29.524Z,47.52
2023-04-10T07:37:31.490Z,47.00
2023-04-10T07:38:33.169Z,46.89
2023-04-10T07:39:34.579Z,46.58
2023-04-10T07:40:35.994Z,46.67
2023-04-10T07:41:37.966Z,46.22
2023-04-10T07:42:39.443Z,46.10
2023-04-10T07:43:41.566Z,45.89
2023-04-10T07:44:43.017Z,46.28
2023-04-10T07:45:44.488Z,46.34
2023-04-10T07:46:45.981Z,46.38
2023-04-10T07:47:47.779Z,46.08
2023-04-10T07:48:49.805Z,45.00
2023-04-10T07:49:51.340Z,45.60
2023-04-10T07:50:53.115Z,45.54
2023-04-10T07:51:54.682Z,45.61
2023-04-10T07:52:56.910Z,45.01
2023-04-10T07:53:58.431Z,45.54
2023-04-10T07:55:03.173Z,45.33
2023-04-10T07:56:05.134Z,44.80
2023-04-10T07:57:06.626Z,44.75
2023-04-10T07:58:08.117Z,44.54
2023-04-10T07:59:10.128Z,45.35
2023-04-10T08:00:12.288Z,44.79
2023-04-10T08:01:14.835Z,44.36
2023-04-10T08:02:16.349Z,44.37
2023-04-10T08:03:18.142Z,44.02
2023-04-10T08:04:20.590Z,44.55
2023-04-10T08:05:22.272Z,44.42
2023-04-10T08:06:23.849Z,44.23
2023-04-10T08:07:25.366Z,44.59
2023-04-10T08:08:26.852Z,43.91
2023-04-10T08:09:28.883Z,44.08
2023-04-10T08:10:30.400Z,43.82
2023-04-10T08:11:35.288Z,43.71
2023-04-10T08:12:38.127Z,43.71
2023-04-10T08:13:39.552Z,43.55
2023-04-10T08:14:41.269Z,43.50
2023-04-10T08:15:43.166Z,42.27
2023-04-10T08:16:44.708Z,40.84
2023-04-10T08:17:46.184Z,40.96
2023-04-10T08:18:47.656Z,40.54
2023-04-10T08:19:49.121Z,40.07
2023-04-10T08:20:50.564Z,38.64
2023-04-10T08:21:52.014Z,38.21
2023-04-10T08:22:54.237Z,37.48
2023-04-10T08:24:01.222Z,35.99
2023-04-10T08:25:03.290Z,34.52
2023-04-10T08:26:05.531Z,34.59
2023-04-10T08:27:06.960Z,34.20
2023-04-10T08:28:08.378Z,33.73
2023-04-10T08:29:09.810Z,32.93
2023-04-10T08:30:11.657Z,32.98
2023-04-10T08:31:14.169Z,32.97
2023-04-10T08:32:15.732Z,32.62
2023-04-10T08:33:17.271Z,32.33
2023-04-10T08:34:18.691Z,32.86
2023-04-10T08:35:20.308Z,33.67
2023-04-10T08:36:21.958Z,34.04
2023-04-10T08:37:23.457Z,34.55
2023-04-10T08:38:27.536Z,35.31
2023-04-10T08:39:28.965Z,36.67
2023-04-10T08:40:30.493Z,37.79
2023-04-10T08:41:32.176Z,38.16
2023-04-10T08:42:34.716Z,38.87
2023-04-10T08:43:37.134Z,39.29
2023-04-10T08:44:39.818Z,39.97
2023-04-10T08:45:41.501Z,40.43
2023-04-10T08:46:44.868Z,40.85
2023-04-10T08:47:48.986Z,41.48
2023-04-10T08:49:04.118Z,41.09
2023-04-10T08:50:10.580Z,41.45
2023-04-10T08:51:19.985Z,41.37
2023-04-10T08:52:25.646Z,42.47
2023-04-10T08:53:31.581Z,41.86
2023-04-10T08:54:35.758Z,42.14
2023-04-10T08:55:38.409Z,41.86
2023-04-10T08:56:42.811Z,41.84
2023-04-10T08:57:50.922Z,42.31
2023-04-10T08:59:05.812Z,43.62
2023-04-10T09:00:22.115Z,42.45
2023-04-10T09:01:25.604Z,42.65
2023-04-10T09:02:28.797Z,43.20
2023-04-10T09:03:31.113Z,43.14
2023-04-10T09:04:33.513Z,43.06
2023-04-10T09:05:35.987Z,42.84
2023-04-10T09:06:37.567Z,43.42
2023-04-10T09:07:39.229Z,43.25
2023-04-10T09:08:40.696Z,43.18
2023-04-10T09:09:43.224Z,43.71
2023-04-10T09:10:44.687Z,43.49
2023-04-10T09:11:52.262Z,43.04
2023-04-10T09:12:53.741Z,43.69
2023-04-10T09:13:55.411Z,43.74
2023-04-10T09:14:57.235Z,43.80
2023-04-10T09:16:00.288Z,43.62
2023-04-10T09:17:16.207Z,43.80
2023-04-10T09:18:18.156Z,44.12
2023-04-10T09:19:33.730Z,44.10
2023-04-10T09:20:35.331Z,44.50
2023-04-10T09:21:36.854Z,43.88
2023-04-10T09:22:38.904Z,44.52
2023-04-10T09:23:42.222Z,44.05
2023-04-10T09:24:45.457Z,44.59
2023-04-10T09:25:47.855Z,45.15
2023-04-10T09:26:50.246Z,44.66
2023-04-10T09:28:08.723Z,44.88
2023-04-10T09:29:12.312Z,45.22
2023-04-10T09:30:34.316Z,45.02
2023-04-10T09:31:40.155Z,44.50
2023-04-10T09:32:44.304Z,44.48
2023-04-10T09:33:46.350Z,44.75
2023-04-10T09:34:57.144Z,44.86
2023-04-10T09:36:04.195Z,44.81
2023-04-10T09:37:06.102Z,43.76
2023-04-10T09:38:18.671Z,44.21
2023-04-10T09:39:20.302Z,44.27
2023-04-10T09:40:25.256Z,44.26
2023-04-10T09:41:26.922Z,44.82
2023-04-10T09:42:35.563Z,44.88
2023-04-10T09:43:38.985Z,44.53
2023-04-10T09:44:41.442Z,43.36
2023-04-10T09:45:55.069Z,43.42
2023-04-10T09:46:57.200Z,43.48
2023-04-10T09:48:07.805Z,43.66
2023-04-10T09:49:09.493Z,44.48
2023-04-10T09:50:10.929Z,43.75
2023-04-10T09:51:29.933Z,43.74
2023-04-10T09:52:33.570Z,43.58
2023-04-10T09:53:48.495Z,43.93
2023-04-10T09:54:49.955Z,44.35
2023-04-10T09:55:51.634Z,43.97
2023-04-10T09:56:54.473Z,43.91
2023-04-10T09:57:57.677Z,44.46
2023-04-10T09:59:02.225Z,44.17
2023-04-10T10:00:07.069Z,43.26
2023-04-10T10:01:08.772Z,43.64
2023-04-10T10:02:13.313Z,43.69
2023-04-10T10:03:16.676Z,44.39
2023-04-10T10:04:18.548Z,43.00
2023-04-10T10:05:49.557Z,43.16
2023-04-10T10:06:51.157Z,43.17
2023-04-10T10:07:52.604Z,43.56
2023-04-10T10:08:54.645Z,43.23
2023-04-10T10:09:57.917Z,43.92
2023-04-10T10:11:01.695Z,43.88
2023-04-10T10:12:06.925Z,43.07
2023-04-10T10:13:09.891Z,43.75
2023-04-10T10:14:17.377Z,43.64
2023-04-10T10:16:00.479Z,43.34
2023-04-10T10:17:16.803Z,42.76
2023-04-10T10:18:26.352Z,41.65
2023-04-10T10:19:45.306Z,41.74
2023-04-10T10:20:47.312Z,42.20
2023-04-10T10:21:49.172Z,41.42
2023-04-10T10:22:51.842Z,41.62
2023-04-10T10:23:55.679Z,41.70
2023-04-10T10:25:02.889Z,41.22
2023-04-10T10:26:08.764Z,40.84
2023-04-10T10:27:10.806Z,41.13
2023-04-10T10:28:17.526Z,41.29
2023-04-10T10:29:21.958Z,41.08
2023-04-10T10:30:29.981Z,40.79
2023-04-10T10:31:34.107Z,39.96
2023-04-10T10:32:36.644Z,39.55
2023-04-10T10:33:39.255Z,39.05
2023-04-10T10:34:41.500Z,39.77
2023-04-10T10:35:43.774Z,39.45
2023-04-10T10:36:45.520Z,39.71
2023-04-10T10:40:35.972Z,42.56
2023-04-10T10:56:29.056Z,38.43
2023-04-10T10:57:47.239Z,38.11
2023-04-10T10:58:51.163Z,37.12
2023-04-10T10:59:54.310Z,37.26
2023-04-10T11:00:58.969Z,37.58
2023-04-10T11:02:19.694Z,38.27
2023-04-10T11:03:22.640Z,37.10
2023-04-10T11:04:44.872Z,37.23
2023-04-10T11:05:54.192Z,36.61
2023-04-10T11:06:56.640Z,36.79
2023-04-10T11:08:01.966Z,36.54
2023-04-10T11:09:03.648Z,36.64
2023-04-10T11:10:05.572Z,37.45
2023-04-10T11:11:16.887Z,38.13
2023-04-10T11:12:23.808Z,37.57
2023-04-10T11:13:25.387Z,37.66
2023-04-10T11:14:27.496Z,37.21
2023-04-10T11:15:29.106Z,37.94
2023-04-10T11:16:31.542Z,38.54
2023-04-10T11:17:50.715Z,38.48
2023-04-10T11:19:02.695Z,38.28
2023-04-10T11:20:12.028Z,38.06
2023-04-10T11:21:16.133Z,37.96
2023-04-10T11:22:17.646Z,37.61
2023-04-10T11:23:20.457Z,37.51
2023-04-10T11:24:22.269Z,35.95
2023-04-10T11:25:47.785Z,36.23
2023-04-10T11:26:49.313Z,37.15
2023-04-10T11:27:52.818Z,37.57
2023-04-10T11:28:55.518Z,37.64
2023-04-10T11:29:58.320Z,38.02
2023-04-10T11:31:19.859Z,37.49
2023-04-10T11:32:21.507Z,37.58
2023-04-10T11:33:23.218Z,38.33
2023-04-10T11:34:25.415Z,37.37
2023-04-10T11:35:28.321Z,37.16
2023-04-10T11:36:30.567Z,37.31
2023-04-10T11:37:32.174Z,37.37
2023-04-10T11:38:34.374Z,37.66
2023-04-10T11:39:35.874Z,37.83
2023-04-10T11:40:53.363Z,37.44
2023-04-10T11:41:58.434Z,37.28
2023-04-10T11:43:14.147Z,37.07
2023-04-10T11:44:27.128Z,37.29
2023-04-10T11:45:29.096Z,37.06
2023-04-10T11:46:31.740Z,36.72
2023-04-10T11:47:35.673Z,36.93
2023-04-10T11:48:37.609Z,37.00
2023-04-10T11:49:39.136Z,37.65
2023-04-10T11:50:41.385Z,36.29
2023-04-10T11:51:46.511Z,37.13
2023-04-10T11:52:51.288Z,37.30
2023-04-10T11:54:21.259Z,37.54
2023-04-10T11:55:39.217Z,36.94
2023-04-10T11:56:42.582Z,36.86
2023-04-10T11:57:45.668Z,37.00
2023-04-10T11:58:49.764Z,36.86
2023-04-10T11:59:51.649Z,36.33
2023-04-10T12:01:01.947Z,36.75
2023-04-10T12:02:09.270Z,36.83
2023-04-10T12:03:11.810Z,36.49
2023-04-10T12:04:18.886Z,36.26
2023-04-10T12:05:20.832Z,36.88
2023-04-10T12:06:22.538Z,36.97
2023-04-10T12:07:25.519Z,36.33
2023-04-10T12:08:31.700Z,36.30
2023-04-10T12:09:33.746Z,36.35
2023-04-10T12:10:46.981Z,36.10
2023-04-10T12:12:08.979Z,35.87
2023-04-10T12:13:25.189Z,35.31
2023-04-10T12:14:39.722Z,35.13
2023-04-10T12:15:41.273Z,35.07
2023-04-10T12:16:42.979Z,34.78
2023-04-10T12:17:45.055Z,34.91
2023-04-10T12:18:46.838Z,35.39
2023-04-10T12:19:48.541Z,35.23
2023-04-10T12:20:51.877Z,35.46
2023-04-10T12:21:53.915Z,35.07
2023-04-10T12:22:56.831Z,35.35
2023-04-10T12:23:58.317Z,35.29
2023-04-10T12:24:59.744Z,34.84
2023-04-10T12:26:28.013Z,35.06
2023-04-10T12:27:29.461Z,34.31
2023-04-10T12:28:30.947Z,33.55
2023-04-10T12:29:32.427Z,33.59
2023-04-10T12:30:34.083Z,33.76
2023-04-10T12:31:37.331Z,33.24
2023-04-10T12:32:39.660Z,33.22
2023-04-10T12:33:45.399Z,33.02
2023-04-10T12:34:51.075Z,33.17
2023-04-10T12:35:55.680Z,32.79
2023-04-10T12:36:59.738Z,32.99
2023-04-10T12:38:01.383Z,32.45
2023-04-10T12:39:04.420Z,32.69
2023-04-10T12:40:09.047Z,31.35
2023-04-10T12:41:11.738Z,30.77
2023-04-10T12:42:20.976Z,30.16
2023-04-10T12:43:33.866Z,28.05
2023-04-10T12:44:35.815Z,24.97
2023-04-10T12:45:45.030Z,21.79
2023-04-10T12:46:46.727Z,19.61
2023-04-10T12:47:52.140Z,18.77
2023-04-10T12:48:54.696Z,19.00
2023-04-10T12:50:10.655Z,20.67
2023-04-10T12:51:12.341Z,22.95
2023-04-10T12:52:22.890Z,24.34
2023-04-10T12:53:25.513Z,25.57
2023-04-10T12:54:32.020Z,26.24
2023-04-10T12:55:33.830Z,26.21
2023-04-10T12:56:43.606Z,26.88
2023-04-10T12:57:46.596Z,26.70
2023-04-10T12:58:48.040Z,26.97
2023-04-10T12:59:50.139Z,27.36
2023-04-10T13:01:00.450Z,26.57
2023-04-10T13:02:02.028Z,26.46
2023-04-10T13:03:03.985Z,26.85
2023-04-10T13:04:06.554Z,27.47
2023-04-10T13:05:11.481Z,27.09
2023-04-10T13:06:13.255Z,27.29
2023-04-10T13:07:17.981Z,27.39
2023-04-10T13:08:19.949Z,27.62
2023-04-10T13:09:22.444Z,26.98
2023-04-10T13:10:31.188Z,26.97
2023-04-10T13:11:32.637Z,27.24
2023-04-10T13:12:35.281Z,27.10
2023-04-10T13:13:37.148Z,27.65
2023-04-10T13:14:38.660Z,27.81
2023-04-10T13:15:40.953Z,27.84
2023-04-10T13:16:42.538Z,27.73
2023-04-10T13:17:44.079Z,27.32
2023-04-10T13:18:45.759Z,27.60
2023-04-10T13:19:47.245Z,27.94
2023-04-10T13:20:52.392Z,28.37
2023-04-10T13:21:53.993Z,28.24
2023-04-10T13:22:57.413Z,28.01
2023-04-10T13:24:05.126Z,28.14
2023-04-10T13:25:06.972Z,28.82
2023-04-10T13:26:08.449Z,28.93
2023-04-10T13:27:10.811Z,28.75
2023-04-10T13:28:12.305Z,29.11
2023-04-10T13:29:15.865Z,29.33
2023-04-10T13:30:17.434Z,29.16
2023-04-10T13:31:18.954Z,29.07
2023-04-10T13:32:21.188Z,29.21
2023-04-10T13:33:25.028Z,29.06
2023-04-10T13:34:26.581Z,29.33
2023-04-10T13:35:28.084Z,29.38
2023-04-10T13:36:29.957Z,29.52
2023-04-10T13:37:32.310Z,29.12
2023-04-10T13:38:34.072Z,30.24
2023-04-10T13:39:35.568Z,30.22
2023-04-10T13:40:37.241Z,28.71
2023-04-10T13:41:38.698Z,28.32
2023-04-10T13:42:42.442Z,28.16
2023-04-10T13:43:44.164Z,27.67
2023-04-10T13:44:45.766Z,27.77
2023-04-10T13:45:47.269Z,28.09
2023-04-10T13:46:48.753Z,28.15
2023-04-10T13:47:50.634Z,27.08
2023-04-10T13:48:52.320Z,27.73
2023-04-10T13:50:24.683Z,27.67
2023-04-10T13:51:26.571Z,27.48
2023-04-10T13:52:34.554Z,27.51
2023-04-10T13:54:23.404Z,27.55
2023-04-10T13:55:22.780Z,27.84
2023-04-10T13:56:24.326Z,27.66
2023-04-10T13:57:25.906Z,28.02
2023-04-10T13:58:31.680Z,28.07
2023-04-10T13:59:33.482Z,28.22
2023-04-10T14:00:35.150Z,28.74
2023-04-10T14:01:36.738Z,27.85